»·PEaware :: DCM425 7S6-KASE

DCM425 :: 7S6-KASE

FLIGHT INFORMATION

Flight Status: Arrived
Operator: DotCom
More flights by this operator :: More flights under this callsign
Pilot: Tyler J. (19619)
Aircraft: Cessna Citation Excel
(C56X)
More flights by this aircraft type
Origin: 7S6 White Sulphur Springs
United States
Destination: KASE Aspen-Pitkin Co/Sardy
United States
More flights between these airports :: More routes between these airports
Route: + LVM JAC V328 OCS EKR TRUEL JARGU
File this flight plan on PilotEdge
Remarks:
Altitude:
(Current/Filed)
33,000ft
Speed:
(Current/Filed)
410kts
Departed: 14-Jan-20 07:40 AM
Arrived: 14-Jan-20 08:56 AM
Distance/Time
Traveled:
472nm/1:15
Distance/Time
To Go:
Arrived

Flight Plot

Page will automatically refresh every two minutes.

Flight plan parsing failed; only flown route is shown


Map Options




Map Legend


Flown Route
Filed Route
Departure Airport
Arrival Airport
Navaid (VOR, NDB)
Fix

Horizontal Profiles

Position Reports

Time Latitude Longitude Heading Altitude Ground
Speed
14-Jan-20 07:17 46.510664 -110.907644 84 5065ft 0kts
14-Jan-20 07:18 46.510664 -110.907644 84 5065ft 0kts
14-Jan-20 07:19 46.510664 -110.907644 84 5065ft 0kts
14-Jan-20 07:20 46.510664 -110.907644 84 5065ft 0kts
14-Jan-20 07:21 46.510664 -110.907644 84 5065ft 0kts
14-Jan-20 07:22 46.510664 -110.907644 84 5065ft 0kts
14-Jan-20 07:23 46.510664 -110.907644 84 5065ft 0kts
14-Jan-20 07:24 46.510664 -110.907644 84 5065ft 0kts
14-Jan-20 07:25 46.510664 -110.907644 84 5065ft 0kts
14-Jan-20 07:26 46.510664 -110.907644 84 5065ft 0kts
14-Jan-20 07:27 46.510664 -110.907644 84 5065ft 0kts
14-Jan-20 07:28 46.510664 -110.907644 84 5065ft 0kts
14-Jan-20 07:29 46.510664 -110.907644 84 5065ft 0kts
14-Jan-20 07:30 46.510664 -110.907644 84 5065ft 0kts
14-Jan-20 07:31 46.510664 -110.907644 84 5065ft 0kts
14-Jan-20 07:32 46.510664 -110.907643 84 5065ft 0kts
14-Jan-20 07:33 46.510664 -110.907640 84 5065ft 0kts
14-Jan-20 07:34 46.510670 -110.908230 292 5065ft 0kts
14-Jan-20 07:35 46.506735 -110.911400 203 5065ft 25kts
14-Jan-20 07:36 46.501089 -110.915382 206 5065ft 24kts
14-Jan-20 07:37 46.496580 -110.917713 245 5065ft 3kts
14-Jan-20 07:38 46.496863 -110.918388 24 5065ft 0kts
14-Jan-20 07:39 46.524150 -110.896928 27 6246ft 193kts
14-Jan-20 07:40 46.565045 -110.834207 94 11262ft 261kts
14-Jan-20 07:41 46.520552 -110.742865 137 14012ft 308kts
14-Jan-20 07:42 46.460696 -110.654056 137 15927ft 308kts
14-Jan-20 07:43 46.386245 -110.599104 172 19308ft 314kts
14-Jan-20 07:44 46.296749 -110.577530 175 22278ft 337kts
14-Jan-20 07:45 46.200855 -110.555724 175 24780ft 358kts
14-Jan-20 07:46 46.100676 -110.532958 176 27005ft 372kts
14-Jan-20 07:47 45.996448 -110.509315 176 28941ft 386kts
14-Jan-20 07:48 45.888435 -110.484844 176 30742ft 398kts
14-Jan-20 07:49 45.777835 -110.459738 176 32396ft 407kts
14-Jan-20 07:50 45.661157 -110.449763 188 32773ft 433kts
14-Jan-20 07:51 45.538549 -110.464932 191 32771ft 446kts
14-Jan-20 07:52 45.416941 -110.482651 191 32774ft 437kts
14-Jan-20 07:53 45.296236 -110.500252 191 32779ft 434kts
14-Jan-20 07:54 45.176522 -110.517467 191 32785ft 433kts
14-Jan-20 07:55 45.056578 -110.534522 191 32791ft 433kts
14-Jan-20 07:56 44.936774 -110.551416 191 32797ft 433kts
14-Jan-20 07:57 44.816932 -110.568214 191 32801ft 433kts
14-Jan-20 07:58 44.696936 -110.584945 191 32805ft 433kts
14-Jan-20 07:59 44.576671 -110.601638 191 32809ft 434kts
14-Jan-20 08:00 44.456352 -110.618267 191 32810ft 435kts
14-Jan-20 08:01 44.335753 -110.634863 191 32815ft 435kts
14-Jan-20 08:02 44.214999 -110.651409 191 32825ft 436kts
14-Jan-20 08:03 44.094603 -110.667831 191 32842ft 436kts
14-Jan-20 08:04 43.973640 -110.684261 191 32862ft 436kts
14-Jan-20 08:05 43.852780 -110.700612 191 32882ft 436kts
14-Jan-20 08:06 43.732187 -110.716847 191 32895ft 436kts
14-Jan-20 08:07 43.610726 -110.720818 172 32900ft 448kts
14-Jan-20 08:08 43.492265 -110.660494 159 32899ft 456kts
14-Jan-20 08:09 43.377603 -110.586526 158 32901ft 456kts
14-Jan-20 08:10 43.261970 -110.514214 159 32906ft 457kts
14-Jan-20 08:11 43.145573 -110.444448 160 32913ft 457kts
14-Jan-20 08:12 43.028747 -110.374980 160 32920ft 458kts
14-Jan-20 08:14 42.911871 -110.305532 160 32923ft 458kts
14-Jan-20 08:15 42.794738 -110.236148 160 32925ft 459kts
14-Jan-20 08:16 42.676993 -110.166705 160 32929ft 461kts
14-Jan-20 08:17 42.562039 -110.089267 148 32929ft 467kts
14-Jan-20 08:18 42.459668 -109.979154 140 32928ft 471kts
14-Jan-20 08:19 42.360572 -109.863157 141 32928ft 472kts
14-Jan-20 08:20 42.266926 -109.758277 142 32919ft 472kts
14-Jan-20 08:21 42.183047 -109.665296 142 32912ft 473kts
14-Jan-20 08:22 42.081665 -109.553238 142 32911ft 472kts
14-Jan-20 08:23 41.979872 -109.441023 142 32912ft 473kts
14-Jan-20 08:24 41.878125 -109.329232 142 32917ft 473kts
14-Jan-20 08:25 41.775760 -109.217185 142 32927ft 474kts
14-Jan-20 08:26 41.673568 -109.105928 142 32929ft 474kts
14-Jan-20 08:27 41.568291 -109.000107 150 32929ft 473kts
14-Jan-20 08:28 41.454119 -108.912976 153 32931ft 472kts
14-Jan-20 08:29 41.338702 -108.829801 154 32940ft 472kts
14-Jan-20 08:30 41.223387 -108.746875 154 32952ft 472kts
14-Jan-20 08:31 41.107674 -108.663534 153 32960ft 473kts
14-Jan-20 08:32 40.992036 -108.580317 153 32974ft 473kts
14-Jan-20 08:33 40.876432 -108.497336 154 32987ft 473kts
14-Jan-20 08:34 40.760847 -108.414646 154 33001ft 473kts
14-Jan-20 08:35 40.644951 -108.332044 154 33013ft 474kts
14-Jan-20 08:36 40.528832 -108.249599 154 33021ft 475kts
14-Jan-20 08:36 40.433875 -108.182281 154 32742ft 440kts
14-Jan-20 08:38 40.310886 -108.095370 154 30300ft 427kts
14-Jan-20 08:38 40.223194 -108.033841 154 28448ft 429kts
14-Jan-20 08:39 40.118739 -107.960727 154 26064ft 421kts
14-Jan-20 08:41 40.017076 -107.844580 129 23802ft 419kts
14-Jan-20 08:41 39.957723 -107.746187 127 22229ft 412kts
14-Jan-20 08:43 39.876998 -107.609821 128 20011ft 401kts
14-Jan-20 08:43 39.821016 -107.516671 129 19072ft 377kts
14-Jan-20 08:44 39.758090 -107.413074 129 19019ft 359kts
14-Jan-20 08:45 39.695971 -107.313858 133 18998ft 334kts
14-Jan-20 08:46 39.640404 -107.240048 137 18905ft 259kts
14-Jan-20 08:47 39.585252 -107.171143 138 17154ft 281kts
14-Jan-20 08:48 39.530302 -107.102249 138 15351ft 268kts
14-Jan-20 08:49 39.478014 -107.036020 137 13614ft 258kts
14-Jan-20 08:50 39.432618 -106.973177 140 13456ft 226kts
14-Jan-20 08:51 39.382155 -106.943066 168 12856ft 185kts
14-Jan-20 08:52 39.327504 -106.920760 167 11172ft 214kts
14-Jan-20 08:53 39.279433 -106.896439 158 9611ft 159kts
14-Jan-20 08:54 39.241621 -106.877648 160 8048ft 141kts
14-Jan-20 08:55 39.217042 -106.865884 170 7824ft 15kts
14-Jan-20 08:56 39.217025 -106.864731 27 7824ft 11kts
14-Jan-20 08:57 39.221726 -106.866849 343 7824ft 18kts
14-Jan-20 08:58 39.223066 -106.866836 245 7824ft 0kts
14-Jan-20 08:59 39.223066 -106.866836 245 7824ft 0kts
14-Jan-20 09:00 39.223066 -106.866836 245 7824ft 0kts
14-Jan-20 09:01 39.223066 -106.866836 245 7824ft 0kts
14-Jan-20 09:02 39.223066 -106.866836 245 7824ft 0kts
14-Jan-20 09:03 39.223066 -106.866836 245 7824ft 0kts
14-Jan-20 09:04 39.223066 -106.866836 245 7824ft 0kts
14-Jan-20 09:05 39.223066 -106.866836 245 7824ft 0kts
14-Jan-20 09:06 39.223066 -106.866836 245 7824ft 0kts
14-Jan-20 09:07 39.223066 -106.866836 245 7824ft 0kts
14-Jan-20 09:08 39.223066 -106.866836 245 7824ft 0kts
14-Jan-20 09:09 39.223066 -106.866836 245 7824ft 0kts

Navigation Log

Ident Type
Flight plan parsing failed, navigation log unavailable